createdAt,value
2023-05-06T00:01:03.608Z,91.68
2023-05-06T00:03:06.982Z,92.49
2023-05-06T00:05:11.022Z,92.72
2023-05-06T00:07:14.597Z,93.45
2023-05-06T00:09:17.994Z,93.06
2023-05-06T00:11:22.974Z,93.18
2023-05-06T00:13:26.043Z,92.43
2023-05-06T00:15:30.880Z,93.28
2023-05-06T00:17:35.581Z,93.13
2023-05-06T00:19:39.173Z,93.92
2023-05-06T00:21:42.737Z,94.03
2023-05-06T00:23:46.052Z,93.55
2023-05-06T00:25:49.344Z,94.69
2023-05-06T00:27:54.586Z,95.27
2023-05-06T00:29:59.032Z,94.31
2023-05-06T00:32:02.409Z,95.13
2023-05-06T00:34:05.775Z,94.69
2023-05-06T00:36:09.729Z,94.77
2023-05-06T00:38:15.340Z,95.34
2023-05-06T00:40:19.174Z,95.69
2023-05-06T00:42:23.748Z,95.47
2023-05-06T00:44:28.489Z,94.89
2023-05-06T00:46:31.866Z,94.99
2023-05-06T00:48:35.675Z,94.94
2023-05-06T00:50:41.559Z,96.34
2023-05-06T00:52:45.259Z,95.62
2023-05-06T00:54:48.673Z,96.23
2023-05-06T00:56:52.034Z,95.71
2023-05-06T00:58:56.032Z,96.14
2023-05-06T01:01:02.035Z,96.27
2023-05-06T01:03:05.938Z,95.74
2023-05-06T01:05:10.956Z,95.37
2023-05-06T01:07:28.005Z,95.89
2023-05-06T01:09:39.739Z,96.94
2023-05-06T01:11:47.452Z,97.61
2023-05-06T01:13:58.258Z,96.75
2023-05-06T01:16:04.209Z,96.65
2023-05-06T01:18:12.142Z,96.02
2023-05-06T01:20:16.515Z,95.07
2023-05-06T01:22:20.789Z,95.51
2023-05-06T01:24:36.670Z,94.88
2023-05-06T01:26:42.708Z,95.36
2023-05-06T01:28:46.405Z,94.50
2023-05-06T01:30:56.927Z,94.42
2023-05-06T01:33:08.050Z,95.17
2023-05-06T01:35:19.926Z,94.53
2023-05-06T01:37:29.432Z,94.35
2023-05-06T01:39:35.651Z,94.60
2023-05-06T01:41:41.764Z,94.31
2023-05-06T01:43:50.431Z,94.72
2023-05-06T01:45:56.418Z,94.32
2023-05-06T01:48:00.640Z,93.78
2023-05-06T01:50:05.976Z,93.77
2023-05-06T01:52:10.436Z,93.82
2023-05-06T01:54:14.312Z,93.49
2023-05-06T01:56:19.167Z,93.38
2023-05-06T01:58:22.807Z,93.60
2023-05-06T02:00:26.947Z,93.40
2023-05-06T02:02:30.587Z,93.00
2023-05-06T02:04:33.999Z,92.90
2023-05-06T02:06:37.531Z,92.98
2023-05-06T02:08:41.989Z,93.25
2023-05-06T02:10:49.299Z,93.44
2023-05-06T02:12:56.259Z,93.46
2023-05-06T02:14:59.300Z,94.24
2023-05-06T02:17:05.234Z,93.15
2023-05-06T02:19:08.958Z,93.85
2023-05-06T02:21:12.547Z,93.67
2023-05-06T02:23:15.999Z,93.98
2023-05-06T02:25:19.756Z,94.49
2023-05-06T02:27:23.410Z,93.81
2023-05-06T02:29:28.402Z,94.24
2023-05-06T02:31:33.231Z,93.93
2023-05-06T02:33:36.854Z,94.78
2023-05-06T02:35:41.177Z,94.67
2023-05-06T02:37:45.701Z,94.31
2023-05-06T02:39:49.393Z,94.34
2023-05-06T02:41:53.175Z,94.73
2023-05-06T02:43:56.735Z,94.91
2023-05-06T02:46:02.093Z,95.05
2023-05-06T02:48:06.419Z,95.66
2023-05-06T02:50:10.353Z,95.21
2023-05-06T02:52:14.044Z,94.82
2023-05-06T02:54:17.641Z,95.63
2023-05-06T02:56:21.251Z,95.73
2023-05-06T02:58:26.421Z,96.24
2023-05-06T03:00:30.040Z,97.02
2023-05-06T03:02:35.247Z,96.96
2023-05-06T03:04:38.879Z,97.09
2023-05-06T03:06:42.540Z,97.74
2023-05-06T03:08:46.219Z,97.43
2023-05-06T03:10:50.515Z,96.92
2023-05-06T03:12:56.289Z,96.58
2023-05-06T03:14:59.871Z,97.72
2023-05-06T03:17:03.853Z,97.33
2023-05-06T03:19:11.705Z,97.42
2023-05-06T03:21:15.986Z,96.57
2023-05-06T03:23:22.069Z,96.79
2023-05-06T03:25:26.198Z,97.83
2023-05-06T03:27:30.511Z,97.39
2023-05-06T03:29:39.414Z,97.05
2023-05-06T03:31:44.863Z,96.61
2023-05-06T03:33:49.861Z,98.01
2023-05-06T03:35:55.527Z,98.24
2023-05-06T03:37:59.272Z,98.50
2023-05-06T03:40:10.487Z,98.58
2023-05-06T03:42:14.499Z,98.10
2023-05-06T03:44:18.317Z,98.15
2023-05-06T03:46:22.091Z,97.85
2023-05-06T03:48:26.098Z,98.13
2023-05-06T03:50:31.228Z,98.34
2023-05-06T03:52:36.360Z,99.15
2023-05-06T03:54:40.886Z,100.00
2023-05-06T03:56:44.822Z,100.00
2023-05-06T03:58:49.124Z,100.00
2023-05-06T04:00:53.719Z,99.13
2023-05-06T04:02:57.311Z,99.85
2023-05-06T04:05:18.183Z,100.00
2023-05-06T04:07:22.608Z,100.00
2023-05-06T04:09:28.641Z,99.85
2023-05-06T04:11:32.680Z,100.00
2023-05-06T04:13:38.523Z,99.88
2023-05-06T04:15:49.782Z,99.66
2023-05-06T04:17:58.382Z,100.00
2023-05-06T04:20:07.344Z,100.00
2023-05-06T04:22:11.528Z,99.50
2023-05-06T04:24:16.234Z,99.75
2023-05-06T04:26:21.283Z,99.59
2023-05-06T04:28:25.378Z,99.55
2023-05-06T04:30:31.035Z,99.74
2023-05-06T04:32:35.283Z,100.00
2023-05-06T04:34:40.706Z,100.00
2023-05-06T04:36:49.706Z,99.13
2023-05-06T04:39:06.844Z,99.94
2023-05-06T04:41:12.242Z,100.00
2023-05-06T04:43:17.900Z,99.32
2023-05-06T04:45:24.653Z,99.57
2023-05-06T04:47:29.297Z,100.00
2023-05-06T04:49:33.220Z,99.62
2023-05-06T04:51:38.388Z,99.79
2023-05-06T04:53:42.653Z,99.75
2023-05-06T04:55:46.560Z,100.00
2023-05-06T04:57:50.547Z,100.00
2023-05-06T04:59:55.606Z,100.00
2023-05-06T05:01:59.270Z,100.00
2023-05-06T05:04:03.002Z,100.00
2023-05-06T05:06:07.517Z,100.00
2023-05-06T05:08:13.493Z,99.68
2023-05-06T05:10:17.665Z,100.00
2023-05-06T05:12:21.486Z,100.00
2023-05-06T05:14:27.624Z,100.00
2023-05-06T05:16:33.029Z,100.00
2023-05-06T05:18:38.674Z,100.00
2023-05-06T05:20:49.486Z,100.00
2023-05-06T05:22:54.421Z,100.00
2023-05-06T05:24:58.318Z,100.00
2023-05-06T05:27:02.483Z,100.00
2023-05-06T05:29:06.759Z,100.00
2023-05-06T05:31:10.801Z,100.00
2023-05-06T05:33:16.639Z,100.00
2023-05-06T05:35:22.476Z,100.00
2023-05-06T05:37:28.559Z,100.00
2023-05-06T05:39:32.231Z,99.52
2023-05-06T05:41:36.680Z,99.19
2023-05-06T05:43:40.383Z,98.63
2023-05-06T05:45:44.452Z,98.59
2023-05-06T05:47:48.765Z,99.09
2023-05-06T05:49:54.789Z,98.71
2023-05-06T05:51:59.947Z,97.52
2023-05-06T05:54:05.432Z,97.99
2023-05-06T05:56:09.962Z,97.68
2023-05-06T05:58:14.183Z,96.88
2023-05-06T06:00:21.572Z,97.06
2023-05-06T06:02:29.293Z,95.94
2023-05-06T06:04:33.986Z,95.51
2023-05-06T06:06:39.205Z,94.34
2023-05-06T06:08:42.858Z,93.32
2023-05-06T06:10:47.571Z,93.24
2023-05-06T06:12:56.370Z,93.75
2023-05-06T06:15:03.903Z,93.75
2023-05-06T06:17:08.034Z,93.37
2023-05-06T06:19:11.772Z,93.04
2023-05-06T06:21:15.881Z,92.36
2023-05-06T06:23:21.107Z,92.38
2023-05-06T06:25:24.953Z,92.67
2023-05-06T06:27:28.685Z,92.58
2023-05-06T06:29:32.467Z,93.32
2023-05-06T06:31:38.356Z,93.11
2023-05-06T06:33:43.441Z,93.06
2023-05-06T06:35:47.598Z,93.36
2023-05-06T06:37:51.266Z,93.82
2023-05-06T06:39:56.315Z,93.74
2023-05-06T06:42:00.207Z,93.99
2023-05-06T06:44:11.982Z,93.58
2023-05-06T06:46:15.349Z,93.42
2023-05-06T06:48:18.764Z,93.86
2023-05-06T06:50:22.498Z,94.99
2023-05-06T06:52:25.915Z,94.87
2023-05-06T06:54:29.357Z,94.74
2023-05-06T06:56:34.122Z,94.51
2023-05-06T06:58:37.575Z,94.77
2023-05-06T07:00:40.910Z,94.46
2023-05-06T07:02:44.514Z,94.67
2023-05-06T07:04:47.949Z,94.58
2023-05-06T07:06:51.360Z,94.96
2023-05-06T07:08:54.752Z,94.74
2023-05-06T07:10:58.083Z,94.34
2023-05-06T07:13:03.135Z,94.18
2023-05-06T07:15:08.222Z,93.57
2023-05-06T07:17:11.928Z,93.39
2023-05-06T07:19:15.555Z,92.83
2023-05-06T07:21:19.052Z,92.14
2023-05-06T07:23:22.636Z,92.10
2023-05-06T07:25:27.572Z,92.37
2023-05-06T07:27:31.893Z,92.90
2023-05-06T07:29:37.556Z,93.37
2023-05-06T07:31:41.050Z,93.46
2023-05-06T07:33:44.442Z,93.32
2023-05-06T07:35:47.805Z,93.80
2023-05-06T07:37:51.687Z,93.41
2023-05-06T07:39:55.221Z,93.73
2023-05-06T07:41:58.631Z,93.49
2023-05-06T07:44:02.183Z,92.98
2023-05-06T07:46:07.506Z,93.44
2023-05-06T07:48:11.070Z,92.83
2023-05-06T07:50:14.452Z,93.38
2023-05-06T07:52:17.835Z,92.49
2023-05-06T07:54:21.157Z,92.87
2023-05-06T07:56:24.672Z,92.28
2023-05-06T07:58:28.345Z,92.25
2023-05-06T08:00:32.136Z,91.91
2023-05-06T08:02:38.741Z,91.00
2023-05-06T08:04:42.958Z,90.88
2023-05-06T08:06:46.553Z,90.59
2023-05-06T08:08:49.871Z,90.15
2023-05-06T08:10:53.247Z,90.17
2023-05-06T08:12:56.703Z,89.67
2023-05-06T08:15:00.185Z,89.71
2023-05-06T08:17:03.667Z,88.48
2023-05-06T08:19:08.753Z,88.30
2023-05-06T08:21:11.858Z,87.84
2023-05-06T08:23:15.378Z,87.42
2023-05-06T08:25:19.600Z,87.17
2023-05-06T08:27:23.293Z,87.20
2023-05-06T08:29:26.625Z,87.04
2023-05-06T08:31:30.380Z,86.26
2023-05-06T08:33:33.967Z,86.32
2023-05-06T08:35:38.720Z,86.41
2023-05-06T08:37:41.987Z,86.52
2023-05-06T08:39:45.736Z,85.95
2023-05-06T08:41:51.651Z,85.91
2023-05-06T08:43:56.353Z,85.73
2023-05-06T08:45:59.968Z,85.19
2023-05-06T08:48:03.762Z,85.74
2023-05-06T08:50:08.304Z,85.42
2023-05-06T08:52:13.461Z,85.08
2023-05-06T08:54:17.258Z,84.49
2023-05-06T08:56:23.422Z,84.62
2023-05-06T08:58:28.319Z,84.84
2023-05-06T09:00:31.354Z,84.35
2023-05-06T09:02:34.892Z,84.97
2023-05-06T09:04:38.673Z,84.57
2023-05-06T09:06:42.057Z,84.13
2023-05-06T09:08:46.845Z,83.63
2023-05-06T09:10:50.307Z,83.14
2023-05-06T09:12:56.306Z,82.63
2023-05-06T09:14:59.672Z,82.30
2023-05-06T09:17:03.403Z,82.35
2023-05-06T09:19:07.099Z,82.12
2023-05-06T09:21:10.480Z,81.70
2023-05-06T09:23:15.810Z,82.02
2023-05-06T09:25:20.648Z,81.90
2023-05-06T09:27:24.955Z,82.20
2023-05-06T09:29:28.837Z,81.93
2023-05-06T09:31:33.252Z,81.98
2023-05-06T09:33:37.857Z,82.51
2023-05-06T09:35:43.412Z,82.11
2023-05-06T09:37:47.096Z,81.83
2023-05-06T09:39:51.528Z,81.11
2023-05-06T09:41:56.920Z,80.73
2023-05-06T09:44:01.016Z,81.08
2023-05-06T09:46:06.389Z,80.86
2023-05-06T09:48:10.525Z,80.30
2023-05-06T09:50:15.732Z,79.56
2023-05-06T09:52:21.025Z,80.07
2023-05-06T09:54:26.688Z,79.73
2023-05-06T09:56:32.432Z,80.07
2023-05-06T09:58:37.774Z,79.71
2023-05-06T10:00:42.609Z,79.65
2023-05-06T10:02:48.131Z,79.43
2023-05-06T10:04:52.421Z,79.60
2023-05-06T10:06:58.097Z,78.86
2023-05-06T10:09:02.595Z,78.44
2023-05-06T10:11:07.792Z,77.86
2023-05-06T10:13:12.178Z,77.83
2023-05-06T10:15:17.550Z,77.78
2023-05-06T10:17:25.654Z,77.38
2023-05-06T10:19:30.030Z,77.00
2023-05-06T10:21:37.431Z,76.59
2023-05-06T10:23:45.842Z,76.81
2023-05-06T10:25:52.955Z,76.07
2023-05-06T10:27:57.072Z,76.15
2023-05-06T10:30:02.114Z,76.17
2023-05-06T10:32:11.104Z,75.88
2023-05-06T10:34:14.886Z,75.45
2023-05-06T10:36:21.650Z,75.45
2023-05-06T10:38:31.314Z,75.59
2023-05-06T10:40:35.199Z,74.76
2023-05-06T10:42:38.985Z,74.35
2023-05-06T10:44:58.829Z,74.27
2023-05-06T10:47:02.893Z,73.37
2023-05-06T10:49:20.574Z,73.25
2023-05-06T10:51:29.645Z,73.46
2023-05-06T10:54:02.760Z,73.56
2023-05-06T10:56:10.553Z,73.55
2023-05-06T10:58:16.140Z,73.05
2023-05-06T11:00:20.712Z,72.69
2023-05-06T11:02:25.501Z,72.40
2023-05-06T11:04:31.805Z,72.47
2023-05-06T11:06:37.410Z,73.19
2023-05-06T11:08:41.464Z,73.72
2023-05-06T11:10:45.322Z,74.44
2023-05-06T11:12:50.549Z,74.58
2023-05-06T11:14:55.209Z,74.72
2023-05-06T11:17:01.800Z,75.48
2023-05-06T11:19:05.978Z,75.93
2023-05-06T11:21:42.361Z,76.98
2023-05-06T11:24:14.260Z,78.12
2023-05-06T11:26:17.960Z,78.38
2023-05-06T11:28:22.630Z,79.22
2023-05-06T11:30:26.662Z,80.44
2023-05-06T11:32:31.283Z,81.23
2023-05-06T11:34:35.594Z,81.50
2023-05-06T11:36:48.180Z,82.11
2023-05-06T11:38:53.223Z,82.38
2023-05-06T11:40:56.975Z,82.03
2023-05-06T11:43:12.296Z,82.11
2023-05-06T11:45:17.074Z,81.99
2023-05-06T11:47:23.885Z,81.59
2023-05-06T11:49:28.534Z,81.31
2023-05-06T11:51:32.795Z,80.84
2023-05-06T11:53:38.776Z,80.99
2023-05-06T11:55:42.371Z,81.11
2023-05-06T11:57:47.189Z,80.95
2023-05-06T11:59:55.737Z,80.70
2023-05-06T12:02:01.124Z,80.54
2023-05-06T12:04:04.922Z,80.59
2023-05-06T12:06:09.923Z,80.76
2023-05-06T12:08:23.521Z,81.33
2023-05-06T12:10:31.441Z,81.84
2023-05-06T12:12:35.301Z,81.90
2023-05-06T12:14:39.848Z,82.10
2023-05-06T12:16:46.975Z,81.43
2023-05-06T12:18:50.960Z,80.90
2023-05-06T12:20:55.868Z,80.73
2023-05-06T12:23:08.690Z,80.77
2023-05-06T12:25:16.058Z,80.34
2023-05-06T12:27:35.070Z,80.76
2023-05-06T12:29:38.785Z,80.88
2023-05-06T12:31:43.343Z,81.03
2023-05-06T12:33:49.186Z,81.03
2023-05-06T12:35:54.873Z,81.47
2023-05-06T12:37:59.589Z,81.24
2023-05-06T12:40:04.133Z,80.29
2023-05-06T12:42:08.339Z,79.79
2023-05-06T12:44:39.034Z,79.18
2023-05-06T12:46:52.892Z,79.29
2023-05-06T12:49:00.882Z,78.06
2023-05-06T12:51:19.436Z,79.64
2023-05-06T12:53:33.511Z,79.53
2023-05-06T12:55:38.035Z,78.33
2023-05-06T12:57:41.790Z,78.30
2023-05-06T12:59:47.634Z,79.12
2023-05-06T13:01:51.561Z,80.18
2023-05-06T13:03:56.810Z,79.47
2023-05-06T13:06:00.395Z,79.02
2023-05-06T13:08:04.696Z,78.50
2023-05-06T13:10:09.505Z,78.72
2023-05-06T13:12:13.525Z,78.31
2023-05-06T13:14:17.739Z,78.68
2023-05-06T13:16:22.949Z,79.20
2023-05-06T13:18:26.810Z,79.34
2023-05-06T13:20:30.698Z,79.26
2023-05-06T13:22:50.673Z,78.96
2023-05-06T13:24:57.293Z,79.64
2023-05-06T13:27:01.262Z,80.68
2023-05-06T13:29:05.306Z,81.21
2023-05-06T13:31:09.599Z,81.36
2023-05-06T13:33:17.063Z,82.01
2023-05-06T13:35:20.657Z,82.56
2023-05-06T13:37:24.356Z,83.03
2023-05-06T13:39:27.967Z,83.60
2023-05-06T13:41:32.076Z,84.72
2023-05-06T13:43:35.671Z,86.58
2023-05-06T13:45:39.416Z,87.72
2023-05-06T13:47:44.422Z,89.45
2023-05-06T13:49:49.588Z,90.12
2023-05-06T13:51:53.735Z,91.57
2023-05-06T13:53:57.448Z,93.37
2023-05-06T13:56:01.219Z,93.46
2023-05-06T13:58:05.677Z,93.45
2023-05-06T14:00:11.173Z,93.46
2023-05-06T14:02:14.887Z,93.69
2023-05-06T14:04:18.558Z,93.58
2023-05-06T14:06:23.772Z,93.91
2023-05-06T14:08:27.353Z,92.87
2023-05-06T14:10:31.011Z,93.00
2023-05-06T14:12:34.978Z,93.11
2023-05-06T14:14:38.624Z,93.58
2023-05-06T14:16:42.458Z,94.32
2023-05-06T14:18:46.237Z,95.08
2023-05-06T14:20:49.911Z,94.71
2023-05-06T14:22:54.977Z,94.52
2023-05-06T14:24:58.566Z,93.14
2023-05-06T14:27:02.058Z,93.82
2023-05-06T14:29:05.705Z,93.46
2023-05-06T14:31:09.567Z,93.40
2023-05-06T14:33:13.585Z,94.05
2023-05-06T14:35:17.334Z,93.52
2023-05-06T14:37:21.006Z,93.70
2023-05-06T14:39:26.214Z,93.90
2023-05-06T14:41:29.772Z,94.13
2023-05-06T14:43:33.343Z,93.74
2023-05-06T14:45:36.994Z,93.50
2023-05-06T14:47:41.480Z,93.01
2023-05-06T14:49:45.365Z,93.72
2023-05-06T14:51:50.117Z,93.25
2023-05-06T14:53:53.808Z,92.43
2023-05-06T14:55:58.711Z,92.37
2023-05-06T14:58:02.282Z,93.34
2023-05-06T15:00:10.190Z,93.46
2023-05-06T15:02:14.121Z,93.68
2023-05-06T15:04:17.916Z,94.19
2023-05-06T15:06:21.525Z,93.65
2023-05-06T15:08:25.345Z,93.14
2023-05-06T15:10:28.959Z,92.33
2023-05-06T15:12:34.685Z,91.67
2023-05-06T15:14:38.277Z,91.64
2023-05-06T15:16:41.979Z,91.94
2023-05-06T15:18:45.793Z,92.13
2023-05-06T15:20:49.293Z,92.21
2023-05-06T15:22:52.842Z,91.48
2023-05-06T15:24:57.074Z,91.59
2023-05-06T15:27:00.964Z,91.69
2023-05-06T15:29:07.527Z,91.58
2023-05-06T15:31:11.404Z,91.58
2023-05-06T15:33:15.355Z,91.52
2023-05-06T15:35:19.105Z,91.05
2023-05-06T15:37:22.655Z,91.10
2023-05-06T15:39:26.610Z,90.61
2023-05-06T15:41:32.512Z,90.56
2023-05-06T15:43:38.120Z,90.57
2023-05-06T15:45:44.326Z,90.66
2023-05-06T15:47:48.877Z,90.84
2023-05-06T15:49:54.791Z,90.42
2023-05-06T15:52:01.092Z,90.34
2023-05-06T15:54:05.323Z,90.03
2023-05-06T15:56:18.191Z,89.45
2023-05-06T15:58:22.702Z,89.65
2023-05-06T16:00:27.976Z,89.23
2023-05-06T16:02:34.161Z,89.22
2023-05-06T16:04:38.055Z,89.22
2023-05-06T16:06:41.788Z,89.21
2023-05-06T16:08:45.385Z,89.25
2023-05-06T16:10:48.891Z,89.12
2023-05-06T16:12:52.507Z,89.40
2023-05-06T16:14:56.374Z,89.80
2023-05-06T16:16:59.984Z,90.08
2023-05-06T16:19:05.386Z,90.15
2023-05-06T16:21:09.064Z,90.22
2023-05-06T16:23:13.747Z,90.41
2023-05-06T16:25:17.663Z,90.51
2023-05-06T16:27:22.990Z,90.52
2023-05-06T16:29:26.792Z,89.29
2023-05-06T16:31:30.770Z,87.76
2023-05-06T16:33:34.504Z,87.20
2023-05-06T16:35:39.640Z,86.28
2023-05-06T16:37:44.730Z,86.06
2023-05-06T16:39:48.443Z,85.71
2023-05-06T16:41:57.880Z,85.35
2023-05-06T16:44:01.871Z,85.63
2023-05-06T16:46:06.167Z,85.91
2023-05-06T16:48:09.717Z,85.53
2023-05-06T16:50:14.285Z,84.99
2023-05-06T16:52:19.738Z,84.28
2023-05-06T16:54:23.308Z,83.99
2023-05-06T16:56:36.672Z,83.14
2023-05-06T16:58:48.010Z,82.87
2023-05-06T17:00:54.507Z,82.85
2023-05-06T17:02:58.823Z,82.46
2023-05-06T17:05:02.609Z,82.21
2023-05-06T17:07:06.292Z,81.92
2023-05-06T17:09:11.450Z,81.91
2023-05-06T17:11:15.209Z,81.99
2023-05-06T17:13:19.097Z,81.95
2023-05-06T17:15:23.056Z,82.54
2023-05-06T17:17:29.014Z,82.86
2023-05-06T17:19:32.796Z,83.11
2023-05-06T17:21:36.478Z,83.27
2023-05-06T17:23:40.408Z,83.91
2023-05-06T17:25:45.915Z,84.29
2023-05-06T17:27:49.620Z,85.41
2023-05-06T17:29:53.552Z,86.80
2023-05-06T17:31:57.198Z,87.09
2023-05-06T17:34:00.789Z,88.76
2023-05-06T17:36:04.388Z,91.20
2023-05-06T17:38:08.060Z,91.01
2023-05-06T17:40:13.176Z,90.86
2023-05-06T17:42:18.707Z,91.22
2023-05-06T17:44:23.200Z,90.11
2023-05-06T17:46:30.683Z,89.43
2023-05-06T17:48:34.880Z,88.37
2023-05-06T17:50:38.593Z,86.41
2023-05-06T17:52:42.413Z,86.31
2023-05-06T17:54:49.489Z,85.43
2023-05-06T17:56:56.803Z,84.77
2023-05-06T17:59:02.801Z,84.36
2023-05-06T18:01:06.877Z,83.62
2023-05-06T18:03:11.676Z,83.13
2023-05-06T18:05:15.129Z,82.44
2023-05-06T18:07:18.843Z,82.79
2023-05-06T18:09:22.533Z,82.02
2023-05-06T18:11:26.361Z,81.64
2023-05-06T18:13:30.102Z,80.84
2023-05-06T18:15:35.385Z,80.76
2023-05-06T18:17:39.179Z,80.55
2023-05-06T18:19:42.900Z,80.45
2023-05-06T18:21:47.185Z,80.35
2023-05-06T18:23:53.606Z,80.32
2023-05-06T18:26:05.346Z,79.82
2023-05-06T18:28:08.939Z,79.69
2023-05-06T18:30:13.426Z,79.10
2023-05-06T18:32:18.706Z,79.25
2023-05-06T18:34:22.826Z,79.54
2023-05-06T18:36:27.105Z,79.35
2023-05-06T18:38:31.014Z,79.27
2023-05-06T18:40:35.361Z,79.74
2023-05-06T18:42:39.786Z,79.94
2023-05-06T18:44:44.346Z,79.98
2023-05-06T18:46:49.013Z,79.76
2023-05-06T18:48:56.381Z,79.77
2023-05-06T18:51:12.255Z,79.76
2023-05-06T18:53:16.874Z,79.78
2023-05-06T18:55:20.980Z,79.80
2023-05-06T18:57:26.710Z,80.09
2023-05-06T18:59:30.940Z,79.96
2023-05-06T19:01:34.880Z,79.74
2023-05-06T19:03:40.070Z,79.73
2023-05-06T19:05:45.213Z,79.64
2023-05-06T19:07:49.373Z,79.70
2023-05-06T19:09:53.382Z,79.44
2023-05-06T19:11:56.950Z,79.48
2023-05-06T19:14:00.850Z,79.41
2023-05-06T19:16:04.632Z,79.44
2023-05-06T19:18:09.020Z,79.36
2023-05-06T19:20:14.669Z,79.54
2023-05-06T19:22:20.126Z,79.61
2023-05-06T19:24:24.180Z,79.87
2023-05-06T19:26:28.074Z,79.64
2023-05-06T19:28:32.311Z,79.90
2023-05-06T19:30:36.835Z,79.98
2023-05-06T19:32:40.817Z,80.00
2023-05-06T19:34:45.104Z,80.27
2023-05-06T19:36:48.875Z,80.18
2023-05-06T19:38:54.186Z,80.12
2023-05-06T19:40:58.007Z,80.32
2023-05-06T19:43:04.340Z,80.79
2023-05-06T19:45:09.596Z,80.87
2023-05-06T19:47:14.321Z,80.88
2023-05-06T19:49:18.212Z,81.11
2023-05-06T19:51:22.093Z,81.49
2023-05-06T19:53:25.901Z,81.86
2023-05-06T19:55:31.329Z,82.06
2023-05-06T19:57:34.943Z,82.15
2023-05-06T19:59:38.800Z,82.33
2023-05-06T20:01:42.752Z,82.52
2023-05-06T20:03:46.846Z,82.85
2023-05-06T20:05:50.579Z,83.15
2023-05-06T20:07:55.594Z,83.17
2023-05-06T20:09:59.423Z,83.10
2023-05-06T20:12:04.687Z,83.65
2023-05-06T20:14:08.470Z,83.52
2023-05-06T20:16:12.769Z,83.96
2023-05-06T20:18:16.543Z,84.00
2023-05-06T20:20:20.619Z,84.48
2023-05-06T20:22:24.375Z,84.01
2023-05-06T20:24:29.872Z,85.01
2023-05-06T20:26:34.078Z,85.05
2023-05-06T20:28:39.501Z,84.96
2023-05-06T20:30:43.501Z,85.27
2023-05-06T20:32:49.554Z,85.56
2023-05-06T20:34:55.075Z,86.02
2023-05-06T20:37:00.107Z,86.00
2023-05-06T20:39:03.652Z,86.24
2023-05-06T20:41:07.354Z,86.36
2023-05-06T20:43:11.274Z,86.36
2023-05-06T20:45:16.350Z,86.67
2023-05-06T20:47:20.085Z,86.65
2023-05-06T20:49:23.941Z,86.82
2023-05-06T20:51:29.074Z,87.59
2023-05-06T20:53:32.860Z,88.13
2023-05-06T20:55:36.740Z,88.59
2023-05-06T20:57:45.319Z,89.54
2023-05-06T20:59:51.365Z,89.22
2023-05-06T21:01:56.513Z,89.71
2023-05-06T21:04:01.586Z,89.87
2023-05-06T21:06:05.573Z,91.06
2023-05-06T21:08:09.429Z,91.04
2023-05-06T21:10:13.370Z,91.03
2023-05-06T21:12:17.340Z,92.31
2023-05-06T21:14:21.164Z,91.54
2023-05-06T21:16:25.052Z,91.70
2023-05-06T21:18:30.562Z,92.31
2023-05-06T21:20:34.744Z,93.04
2023-05-06T21:22:38.776Z,93.08
2023-05-06T21:24:42.863Z,92.86
2023-05-06T21:26:46.884Z,93.38
2023-05-06T21:28:52.585Z,93.53
2023-05-06T21:30:56.539Z,93.78
2023-05-06T21:33:03.046Z,93.83
2023-05-06T21:35:09.634Z,94.06
2023-05-06T21:37:13.615Z,94.03
2023-05-06T21:39:17.645Z,94.47
2023-05-06T21:41:21.463Z,95.27
2023-05-06T21:43:25.051Z,95.10
2023-05-06T21:45:29.371Z,94.84
2023-05-06T21:47:33.365Z,95.15
2023-05-06T21:49:37.313Z,95.37
2023-05-06T21:51:43.131Z,95.55
2023-05-06T21:53:50.838Z,96.64
2023-05-06T21:55:54.757Z,97.11
2023-05-06T21:57:58.761Z,96.77
2023-05-06T22:00:08.385Z,97.05
2023-05-06T22:02:12.646Z,97.03
2023-05-06T22:04:16.977Z,97.69
2023-05-06T22:06:20.936Z,98.55
2023-05-06T22:08:26.267Z,98.11
2023-05-06T22:10:30.068Z,98.32
2023-05-06T22:12:34.293Z,98.64
2023-05-06T22:14:41.434Z,98.73
2023-05-06T22:16:46.674Z,99.10
2023-05-06T22:18:52.094Z,99.24
2023-05-06T22:20:58.013Z,100.00
2023-05-06T22:23:02.148Z,100.00
2023-05-06T22:25:09.006Z,99.52
2023-05-06T22:27:13.608Z,99.28
2023-05-06T22:29:17.686Z,99.41
2023-05-06T22:31:22.429Z,99.53
2023-05-06T22:33:27.456Z,99.22
2023-05-06T22:35:31.590Z,99.59
2023-05-06T22:37:35.449Z,99.85
2023-05-06T22:39:39.430Z,100.00
2023-05-06T22:41:44.938Z,100.00
2023-05-06T22:43:49.303Z,99.88
2023-05-06T22:45:53.404Z,100.00
2023-05-06T22:47:57.335Z,100.00
2023-05-06T22:50:01.483Z,100.00
2023-05-06T22:52:05.990Z,100.00
2023-05-06T22:54:09.954Z,100.00
2023-05-06T22:56:14.068Z,100.00
2023-05-06T22:58:20.046Z,100.00
2023-05-06T23:00:24.342Z,100.00
2023-05-06T23:02:28.769Z,100.00
2023-05-06T23:04:33.105Z,100.00
2023-05-06T23:06:36.922Z,100.00
2023-05-06T23:08:41.159Z,100.00
2023-05-06T23:10:45.196Z,100.00
2023-05-06T23:12:49.151Z,100.00
2023-05-06T23:14:54.495Z,100.00
2023-05-06T23:16:58.008Z,100.00
2023-05-06T23:19:01.694Z,100.00
2023-05-06T23:21:05.573Z,100.00
2023-05-06T23:23:10.836Z,100.00
2023-05-06T23:25:15.633Z,100.00
2023-05-06T23:27:20.143Z,100.00
2023-05-06T23:29:23.987Z,100.00
2023-05-06T23:31:29.156Z,100.00
2023-05-06T23:33:32.837Z,100.00
2023-05-06T23:35:36.669Z,100.00
2023-05-06T23:37:40.401Z,100.00
2023-05-06T23:39:44.007Z,100.00
2023-05-06T23:41:47.789Z,100.00
2023-05-06T23:43:51.361Z,100.00
2023-05-06T23:45:55.163Z,100.00
2023-05-06T23:48:00.280Z,100.00
2023-05-06T23:50:03.918Z,100.00
2023-05-06T23:52:07.727Z,100.00
2023-05-06T23:54:11.763Z,100.00
2023-05-06T23:56:15.584Z,100.00
2023-05-06T23:58:19.397Z,100.00
